createdAt,value
2023-03-26T00:04:10.600Z,337.4247491638796
2023-03-26T00:10:31.225Z,423.70234113712377
2023-03-26T00:16:54.370Z,347.31772575250835
2023-03-26T00:24:11.308Z,294.60200668896323
2023-03-26T00:30:31.068Z,349.02341137123744
2023-03-26T00:36:51.209Z,370.60535117056855
2023-03-26T00:43:13.866Z,371.81939799331104
2023-03-26T00:49:33.648Z,330.55183946488296
2023-03-26T00:55:54.288Z,306.7123745819398
2023-03-26T01:02:15.498Z,304.9464882943144
2023-03-26T01:08:36.215Z,272.66889632107024
2023-03-26T01:14:56.958Z,299.7391304347826
2023-03-26T01:21:17.473Z,246.1705685618729
2023-03-26T01:27:38.589Z,262.24414715719064
2023-03-26T01:33:58.334Z,271.0735785953177
2023-03-26T01:40:19.823Z,262.52508361204013
2023-03-26T01:46:40.897Z,290.81939799331104
2023-03-26T01:53:02.934Z,313.6254180602007
2023-03-26T01:59:23.351Z,325.81605351170566
2023-03-26T02:05:42.163Z,369.53177257525084
2023-03-26T02:12:02.930Z,361.6254180602007
2023-03-26T02:19:55.071Z,351.18060200668896
2023-03-26T02:26:16.085Z,316.41471571906357
2023-03-26T02:32:37.313Z,305.3779264214047
2023-03-26T02:38:57.368Z,319.26421404682276
2023-03-26T02:46:03.811Z,350.9799331103679
2023-03-26T02:52:24.940Z,324.1705685618729
2023-03-26T02:58:45.871Z,375.7926421404682
2023-03-26T03:09:28.957Z,364.53511705685617
2023-03-26T03:15:48.886Z,355.2140468227425
2023-03-26T03:22:08.310Z,331.02341137123744
2023-03-26T03:28:30.296Z,349.88628762541805
2023-03-26T03:34:51.451Z,331.88628762541805
2023-03-26T03:46:44.597Z,341.7692307692308
2023-03-26T03:53:06.319Z,327.72240802675583
2023-03-26T03:59:29.173Z,321.0802675585284
2023-03-26T04:05:49.343Z,299.60869565217394
2023-03-26T04:13:05.799Z,311.2073578595318
2023-03-26T04:19:26.476Z,310.5752508361204
2023-03-26T04:25:46.934Z,334.82608695652175
2023-03-26T04:32:07.060Z,268.2140468227425
2023-03-26T04:39:18.884Z,268.2240802675585
2023-03-26T04:45:38.343Z,241.34448160535118
2023-03-26T04:51:57.940Z,262.15384615384613
2023-03-26T04:58:18.180Z,305.3678929765886
2023-03-26T05:09:31.592Z,241.4046822742475
2023-03-26T05:15:52.181Z,246.1304347826087
2023-03-26T05:22:14.574Z,247.36454849498327
2023-03-26T05:28:33.988Z,222.73244147157192
2023-03-26T05:34:55.341Z,196.17391304347825
2023-03-26T05:41:17.521Z,201.52173913043478
2023-03-26T05:47:41.951Z,199.45484949832775
2023-03-26T05:54:07.825Z,199.8963210702341
2023-03-26T06:00:32.251Z,290.24749163879596
2023-03-26T06:08:29.484Z,237.08026755852842
2023-03-26T06:14:52.993Z,226.51505016722408
2023-03-26T06:27:40.382Z,253.00334448160535
2023-03-26T06:40:16.032Z,270.8628762541806
2023-03-26T06:46:41.061Z,327.16053511705684
2023-03-26T06:57:03.438Z,280.80602006688963
2023-03-26T07:04:14.384Z,304.67558528428094
2023-03-26T07:10:37.070Z,275.27759197324417
2023-03-26T07:32:27.564Z,274.0836120401338
2023-03-26T07:38:50.695Z,275.9799331103679
2023-03-26T07:45:38.015Z,266.7792642140468
2023-03-26T07:51:59.294Z,363.933110367893
2023-03-26T07:58:20.669Z,360.3010033444816
2023-03-26T08:04:41.980Z,323.18729096989966
2023-03-26T08:12:28.943Z,310.6254180602007
2023-03-26T08:23:50.681Z,358.80602006688963
2023-03-26T08:32:07.718Z,373.18394648829434
2023-03-26T08:38:29.348Z,381.7826086956522
2023-03-26T08:44:50.268Z,399.68227424749165
2023-03-26T08:53:56.421Z,395.03678929765886
2023-03-26T09:00:28.696Z,377.87959866220734
2023-03-26T09:06:52.192Z,362.7892976588629
2023-03-26T09:16:24.355Z,477.4916387959866
2023-03-26T09:22:46.221Z,366.2608695652174
2023-03-26T09:29:11.923Z,395.7792642140468
2023-03-26T09:40:20.131Z,391.2742474916388
2023-03-26T09:46:46.192Z,442.3545150501672
2023-03-26T09:53:07.779Z,361.3645484949833
2023-03-26T09:59:28.639Z,332.9197324414716
2023-03-26T10:05:50.060Z,350.3779264214047
2023-03-26T10:12:10.981Z,425.628762541806
2023-03-26T10:18:32.016Z,421.13377926421407
2023-03-26T10:24:53.145Z,342.943143812709
2023-03-26T10:31:15.016Z,368.2675585284281
2023-03-26T10:37:36.337Z,482.8294314381271
2023-03-26T10:44:07.273Z,493.4046822742475
2023-03-26T10:54:24.929Z,484.69565217391306
2023-03-26T11:01:16.180Z,495.9230769230769
2023-03-26T11:07:37.982Z,489.4214046822743
2023-03-26T11:13:59.495Z,476.38795986622074
2023-03-26T11:20:21.231Z,524.1270903010034
2023-03-26T11:26:43.282Z,499.7658862876254
2023-03-26T11:34:05.349Z,530.8595317725752
2023-03-26T11:41:59.875Z,447.4214046822743
2023-03-26T11:48:21.480Z,429.0200668896321
2023-03-26T11:54:43.185Z,464.4882943143813
2023-03-26T12:01:06.182Z,591.3110367892976
2023-03-26T12:07:27.526Z,707.9799331103679
2023-03-26T12:13:49.030Z,533.6588628762541
2023-03-26T12:20:10.331Z,521.2173913043479
2023-03-26T12:31:34.880Z,666.9832775919732
2023-03-26T12:37:56.033Z,585.9030100334448
2023-03-26T12:44:47.303Z,558.9832775919732
2023-03-26T12:51:18.634Z,586.866220735786
2023-03-26T13:04:19.166Z,521.3377926421405
2023-03-26T13:10:40.746Z,576.3411371237459
2023-03-26T13:17:02.195Z,666.5317725752508
2023-03-26T13:25:27.749Z,506.23745819397993
2023-03-26T13:31:49.372Z,533.6688963210702
2023-03-26T13:38:10.778Z,454.60535117056855
2023-03-26T13:44:32.351Z,500.39799331103677
2023-03-26T13:55:28.227Z,530.3979933110368
2023-03-26T14:02:53.262Z,531.9933110367894
2023-03-26T14:09:15.018Z,391.6555183946488
2023-03-26T14:18:00.723Z,420.6923076923077
2023-03-26T14:24:22.086Z,384.83277591973246
2023-03-26T14:30:44.044Z,441.1304347826087
2023-03-26T14:37:05.617Z,340.7959866220736
2023-03-26T14:43:27.299Z,398.5886287625418
2023-03-26T14:49:48.489Z,318.32107023411373
2023-03-26T14:56:10.020Z,293.59866220735785
2023-03-26T15:02:31.930Z,285.7725752508361
2023-03-26T15:08:53.512Z,325.2842809364549
2023-03-26T15:15:15.147Z,254.87959866220737
2023-03-26T15:27:40.389Z,272.5886287625418
2023-03-26T15:34:02.535Z,529.2040133779265
2023-03-26T15:40:23.880Z,634.0133779264214
2023-03-26T16:03:27.116Z,329.0769230769231
2023-03-26T16:09:48.032Z,274.60535117056855
2023-03-26T16:16:09.041Z,252.30100334448161
2023-03-26T16:22:30.249Z,274.1638795986622
2023-03-26T16:28:51.111Z,289.5752508361204
2023-03-26T16:35:12.456Z,521.4782608695652
2023-03-26T16:46:33.437Z,454.03344481605353
2023-03-26T16:52:54.481Z,411.7826086956522
2023-03-26T16:59:15.908Z,371.72909698996654
2023-03-26T17:05:37.574Z,397.5652173913044
2023-03-26T17:12:00.556Z,438.16053511705684
2023-03-26T17:18:25.217Z,532.4648829431438
2023-03-26T17:30:33.885Z,633.8929765886288
2023-03-26T17:36:55.614Z,730.7658862876254
2023-03-26T17:44:21.632Z,492.1304347826087
2023-03-26T17:50:40.986Z,330.61204013377926
2023-03-26T17:57:03.050Z,312.2006688963211
2023-03-26T18:03:23.887Z,478.58528428093643
2023-03-26T18:09:42.962Z,515.5183946488295
2023-03-26T18:22:16.842Z,579.3913043478261
2023-03-26T18:28:40.063Z,542.2073578595317
2023-03-26T18:35:00.781Z,536.5484949832776
2023-03-26T18:41:21.295Z,505.5652173913044
2023-03-26T18:47:41.709Z,504.190635451505
2023-03-26T18:54:02.373Z,479.89966555183946
2023-03-26T19:05:30.386Z,441.0702341137124
2023-03-26T19:11:50.714Z,434.75919732441474
2023-03-26T19:18:11.772Z,380.60869565217394
2023-03-26T19:24:32.016Z,368.04682274247494
2023-03-26T19:30:54.344Z,327.933110367893
2023-03-26T19:37:14.297Z,323.6989966555184
2023-03-26T19:43:34.291Z,266.17725752508363
2023-03-26T19:49:53.700Z,327.2006688963211
2023-03-26T19:59:17.573Z,304.13377926421407
2023-03-26T20:07:48.430Z,401.428093645485
2023-03-26T20:14:07.014Z,287.9297658862876
2023-03-26T20:20:27.013Z,306.03010033444815
2023-03-26T20:28:47.470Z,301.7759197324415
2023-03-26T20:35:08.241Z,572.5284280936455
2023-03-26T20:41:29.238Z,639.0702341137123
2023-03-26T20:49:27.010Z,416.6488294314381
2023-03-26T21:05:08.257Z,414.8528428093646
2023-03-26T21:14:42.498Z,443.88963210702343
2023-03-26T21:21:14.099Z,321.53177257525084
2023-03-26T21:27:41.291Z,410.438127090301
2023-03-26T21:34:00.010Z,346.18394648829434
2023-03-26T21:42:49.661Z,617.3478260869565
2023-03-26T21:58:39.389Z,266.55852842809367
2023-03-26T22:04:58.297Z,229.86622073578596
2023-03-26T22:11:17.217Z,222.12040133779263
2023-03-26T22:21:17.244Z,245.46822742474916
2023-03-26T22:27:44.138Z,242.4180602006689
2023-03-26T22:34:04.259Z,221.91973244147158
2023-03-26T22:40:22.855Z,215.81939799331104
2023-03-26T22:50:15.375Z,216.1705685618729
2023-03-26T22:56:35.729Z,255.37123745819397
2023-03-26T23:07:15.444Z,212.5284280936455
2023-03-26T23:13:35.646Z,221.42809364548495
2023-03-26T23:19:54.360Z,229.685618729097
2023-03-26T23:26:13.034Z,219.55183946488293
2023-03-26T23:33:16.762Z,241.685618729097
2023-03-26T23:43:00.688Z,190.64548494983276
2023-03-26T23:54:41.174Z,203.76923076923077
